Brule, NE

3:33 AM MST on February 08, 2016 (GMT -0700)
MesoWest | | Change Station
CLOSE
Current Station
Personal Weather Station
Location: Brule, NE
Elevation: 3281 ft
Nearby Weather Stations

Elev 3281 ft 41.10 °N, 101.86 °W | Updated 87 days ago

Clear
Clear
21 °F
Feels Like 7 °F
N
17
Wind Variable Wind from NW
Gusts 31 mph

Today
High -- | Low -- °F
--% Chance of Precip.
Yesterday
High -- | Low -- °F
Precip. -- in
Pressure 30.27 in
Visibility 10.0 miles
Clouds Clear
Windchill 7 °F
Dew Point 12 °F
Humidity 65%
Rainfall in
Snow Depth Not available.
6:51 AM 5:12 PM
Waning Crescent, 0% visible
METAR KOGA 081015Z AUTO 32016KT 10SM CLR M04/M11 A3027 RMK AO2 T10441110
Pressure 30.27 in
Visibility 10.0 miles
Clouds Clear
Windchill 7 °F
Dew Point 12 °F
Humidity 65%
Rainfall in
Snow Depth Not available.
6:51 AM 5:12 PM
Waning Crescent, 0% visible
METAR KOGA 081015Z AUTO 32016KT 10SM CLR M04/M11 A3027 RMK AO2 T10441110

10-Day Weather Forecast

Almanac

Astronomy

Feb. 08, 2016 Rise Set
Actual Time
Civil Twilight
Nautical Twilight
Astronomical Twilight
Moon
Length of Visible Light
Length of Day
Tomorrow will be .
, % of the Moon is Illuminated

Today's Extremes

State Highs State Lows

Community

WunderPhotos

Upload Photos

1,891,420 photos uploaded!

WunderBlog® & News

Nearby

Air Quality

  Air Quality AQ Index Pollutant
Not available.

Snow Depth

Station Depth Elevation

Earthquake Activity

City Distance Mag. Time & Date
Minimum magnitude displayed is 2.5.

Coastal Water Temperatures

Place Temperature

Stations

Nearby Weather Stations

Station Location Temp. Windchill Dew Point Humidity Wind Precip. Elev Updated Type
                   

Watches & Warnings

There are currently no watches in effect.